createdAt,value
2023-04-15T00:01:50.084Z,99.90
2023-04-15T00:04:18.313Z,99.90
2023-04-15T00:06:53.035Z,99.90
2023-04-15T00:09:22.841Z,99.90
2023-04-15T00:11:52.583Z,99.90
2023-04-15T00:14:21.058Z,99.90
2023-04-15T00:16:55.277Z,99.90
2023-04-15T00:19:23.313Z,99.90
2023-04-15T00:21:51.514Z,99.90
2023-04-15T00:24:19.619Z,99.90
2023-04-15T00:26:49.138Z,99.90
2023-04-15T00:29:17.140Z,99.90
2023-04-15T00:31:45.568Z,99.90
2023-04-15T00:34:16.761Z,99.90
2023-04-15T00:36:45.015Z,99.90
2023-04-15T00:39:12.901Z,99.90
2023-04-15T00:41:40.787Z,99.90
2023-04-15T00:44:10.510Z,99.90
2023-04-15T00:46:40.312Z,99.90
2023-04-15T00:49:08.622Z,99.90
2023-04-15T00:51:37.174Z,99.90
2023-04-15T00:54:05.907Z,99.90
2023-04-15T00:56:36.958Z,99.90
2023-04-15T00:59:04.945Z,99.90
2023-04-15T01:01:36.538Z,99.90
2023-04-15T01:04:05.142Z,99.90
2023-04-15T01:06:33.600Z,99.90
2023-04-15T01:09:02.327Z,99.90
2023-04-15T01:11:31.655Z,99.90
2023-04-15T01:14:00.336Z,99.90
2023-04-15T01:16:28.653Z,99.90
2023-04-15T01:18:58.419Z,99.90
2023-04-15T01:21:26.860Z,99.90
2023-04-15T01:23:56.812Z,99.90
2023-04-15T01:26:27.364Z,99.90
2023-04-15T01:29:21.692Z,99.90
2023-04-15T01:31:54.530Z,99.90
2023-04-15T01:34:26.665Z,99.90
2023-04-15T01:37:10.805Z,99.90
2023-04-15T01:39:44.979Z,99.90
2023-04-15T01:42:22.705Z,99.90
2023-04-15T01:44:59.058Z,99.90
2023-04-15T01:47:31.265Z,99.90
2023-04-15T01:50:09.440Z,99.90
2023-04-15T01:52:44.763Z,99.90
2023-04-15T01:55:21.692Z,99.90
2023-04-15T01:58:09.289Z,99.90
2023-04-15T02:00:47.641Z,99.90
2023-04-15T02:03:18.189Z,99.90
2023-04-15T02:05:50.704Z,99.90
2023-04-15T02:08:37.439Z,99.90
2023-04-15T02:11:19.397Z,99.90
2023-04-15T02:14:02.605Z,99.90
2023-04-15T02:16:47.038Z,99.90
2023-04-15T02:19:31.465Z,99.90
2023-04-15T02:22:19.069Z,99.90
2023-04-15T02:25:04.790Z,99.90
2023-04-15T02:27:37.634Z,99.90
2023-04-15T02:30:19.641Z,99.90
2023-04-15T02:33:01.893Z,99.90
2023-04-15T02:35:36.873Z,99.90
2023-04-15T02:38:21.634Z,99.90
2023-04-15T02:40:53.180Z,99.90
2023-04-15T02:43:29.346Z,99.90
2023-04-15T02:46:02.883Z,99.90
2023-04-15T02:48:41.998Z,99.90
2023-04-15T02:51:15.924Z,99.90
2023-04-15T02:53:48.818Z,99.90
2023-04-15T02:56:26.646Z,99.90
2023-04-15T02:59:00.131Z,99.90
2023-04-15T03:01:46.655Z,99.90
2023-04-15T03:04:32.219Z,99.90
2023-04-15T03:07:05.472Z,99.90
2023-04-15T03:09:41.860Z,99.90
2023-04-15T03:12:13.782Z,99.90
2023-04-15T03:14:55.913Z,99.90
2023-04-15T03:17:53.598Z,99.90
2023-04-15T03:28:52.332Z,99.90
2023-04-15T03:31:20.502Z,99.90
2023-04-15T03:33:50.431Z,99.90
2023-04-15T03:36:18.490Z,99.90
2023-04-15T03:38:46.388Z,99.90
2023-04-15T03:41:14.565Z,99.90
2023-04-15T03:43:42.502Z,99.90
2023-04-15T03:46:10.321Z,99.90
2023-04-15T03:48:38.190Z,99.90
2023-04-15T03:51:07.548Z,99.90
2023-04-15T03:53:35.606Z,99.90
2023-04-15T03:56:03.609Z,99.90
2023-04-15T03:58:31.457Z,99.90
2023-04-15T04:00:59.338Z,99.90
2023-04-15T04:03:27.590Z,99.90
2023-04-15T04:05:55.712Z,99.90
2023-04-15T04:08:25.053Z,99.90
2023-04-15T04:10:52.961Z,99.90
2023-04-15T04:13:21.005Z,99.90
2023-04-15T04:15:49.035Z,99.90
2023-04-15T04:18:17.055Z,99.90
2023-04-15T04:20:45.158Z,99.90
2023-04-15T04:23:13.263Z,99.90
2023-04-15T04:25:42.660Z,99.90
2023-04-15T04:28:11.602Z,99.90
2023-04-15T04:30:40.771Z,99.90
2023-04-15T04:33:08.857Z,99.90
2023-04-15T04:35:37.812Z,99.90
2023-04-15T04:38:06.029Z,99.90
2023-04-15T04:40:34.058Z,99.90
2023-04-15T04:43:03.517Z,99.90
2023-04-15T04:45:31.869Z,99.90
2023-04-15T04:47:59.806Z,99.90
2023-04-15T04:50:27.769Z,99.90
2023-04-15T04:52:55.897Z,99.90
2023-04-15T04:55:23.806Z,99.90
2023-04-15T04:57:51.973Z,99.90
2023-04-15T05:00:21.779Z,99.90
2023-04-15T05:02:50.028Z,99.90
2023-04-15T05:05:18.121Z,99.90
2023-04-15T05:07:46.081Z,99.90
2023-04-15T05:10:56.571Z,99.90
2023-04-15T05:16:41.618Z,99.90
2023-04-15T05:19:41.447Z,99.90
2023-04-15T05:22:20.543Z,99.90
2023-04-15T05:25:22.125Z,99.90
2023-04-15T05:28:08.147Z,99.90
2023-04-15T05:31:03.397Z,99.90
2023-04-15T05:34:24.502Z,99.90
2023-04-15T05:40:36.606Z,99.90
2023-04-15T05:43:26.728Z,99.90
2023-04-15T05:46:04.518Z,99.90
2023-04-15T05:48:49.422Z,99.90
2023-04-15T05:51:34.722Z,99.90
2023-04-15T05:54:20.310Z,99.90
2023-04-15T05:57:17.063Z,99.90
2023-04-15T06:00:07.232Z,99.90
2023-04-15T06:03:04.410Z,99.90
2023-04-15T06:06:03.077Z,99.90
2023-04-15T06:08:43.112Z,99.90
2023-04-15T06:11:54.905Z,99.90
2023-04-15T06:20:55.402Z,99.90
2023-04-15T06:23:23.546Z,99.90
2023-04-15T06:25:53.726Z,99.90
2023-04-15T06:28:21.870Z,99.90
2023-04-15T06:31:11.309Z,99.90
2023-04-15T06:34:21.732Z,99.90
2023-04-15T06:36:57.920Z,99.90
2023-04-15T06:40:03.687Z,99.90
2023-04-15T06:42:50.401Z,99.90
2023-04-15T06:45:32.932Z,99.90
2023-04-15T06:48:10.125Z,99.90
2023-04-15T06:51:06.125Z,99.90
2023-04-15T06:53:55.728Z,99.90
2023-04-15T06:57:17.162Z,99.90
2023-04-15T07:00:15.420Z,99.90
2023-04-15T07:03:02.165Z,99.90
2023-04-15T07:05:30.465Z,99.90
2023-04-15T07:07:58.322Z,99.90
2023-04-15T07:10:26.411Z,99.90
2023-04-15T07:12:54.339Z,99.90
2023-04-15T07:15:23.951Z,99.90
2023-04-15T07:17:51.871Z,99.90
2023-04-15T07:20:20.065Z,99.90
2023-04-15T07:22:48.274Z,99.90
2023-04-15T07:25:19.180Z,99.90
2023-04-15T07:27:47.500Z,99.90
2023-04-15T07:30:15.975Z,99.90
2023-04-15T07:32:45.712Z,99.90
2023-04-15T07:35:14.727Z,99.90
2023-04-15T07:37:43.398Z,99.90
2023-04-15T07:40:12.313Z,99.90
2023-04-15T07:42:44.780Z,99.90
2023-04-15T07:45:12.918Z,99.90
2023-04-15T07:47:42.226Z,99.90
2023-04-15T07:50:12.346Z,99.90
2023-04-15T07:52:40.342Z,99.90
2023-04-15T07:55:09.539Z,99.90
2023-04-15T07:57:38.359Z,99.90
2023-04-15T08:00:07.717Z,99.90
2023-04-15T08:02:38.181Z,99.90
2023-04-15T08:05:08.306Z,99.90
2023-04-15T08:07:37.942Z,99.90
2023-04-15T08:10:07.022Z,99.90
2023-04-15T08:12:34.988Z,99.90
2023-04-15T08:15:08.117Z,99.90
2023-04-15T08:17:36.193Z,99.90
2023-04-15T08:20:05.820Z,99.90
2023-04-15T08:22:34.465Z,99.90
2023-04-15T08:25:04.006Z,99.90
2023-04-15T08:27:32.213Z,99.90
2023-04-15T08:30:04.841Z,99.90
2023-04-15T08:32:33.479Z,99.90
2023-04-15T08:35:01.780Z,99.90
2023-04-15T08:37:32.461Z,99.90
2023-04-15T08:40:01.006Z,99.90
2023-04-15T08:42:38.476Z,99.90
2023-04-15T08:45:28.238Z,99.90
2023-04-15T08:48:14.055Z,99.90
2023-04-15T08:50:50.815Z,99.90
2023-04-15T08:53:32.563Z,99.90
2023-04-15T08:56:11.230Z,99.90
2023-04-15T08:59:01.689Z,99.90
2023-04-15T09:01:33.392Z,99.90
2023-04-15T09:04:36.687Z,99.90
2023-04-15T09:07:12.763Z,99.90
2023-04-15T09:10:08.875Z,99.90
2023-04-15T09:12:49.318Z,99.90
2023-04-15T09:15:55.943Z,99.90
2023-04-15T09:18:41.059Z,99.90
2023-04-15T09:21:23.729Z,99.90
2023-04-15T09:24:20.220Z,99.90
2023-04-15T09:27:27.078Z,99.90
2023-04-15T09:30:02.454Z,99.90
2023-04-15T09:33:13.562Z,99.90
2023-04-15T09:36:22.901Z,99.90
2023-04-15T09:39:06.228Z,99.90
2023-04-15T09:41:48.369Z,99.90
2023-04-15T09:44:25.742Z,99.90
2023-04-15T09:46:53.823Z,99.90
2023-04-15T09:49:23.620Z,99.90
2023-04-15T09:52:04.559Z,99.90
2023-04-15T09:54:36.385Z,99.90
2023-04-15T09:57:10.476Z,99.90
2023-04-15T09:59:38.603Z,99.90
2023-04-15T10:02:08.220Z,99.90
2023-04-15T10:04:42.268Z,99.90
2023-04-15T10:07:10.593Z,99.90
2023-04-15T10:09:39.883Z,99.90
2023-04-15T10:12:08.050Z,99.90
2023-04-15T10:14:39.067Z,99.90
2023-04-15T10:17:08.938Z,99.90
2023-04-15T10:19:39.443Z,99.90
2023-04-15T10:22:08.194Z,99.90
2023-04-15T10:24:36.403Z,99.90
2023-04-15T10:27:05.410Z,99.90
2023-04-15T10:29:33.359Z,99.90
2023-04-15T10:32:02.545Z,99.90
2023-04-15T10:34:32.244Z,99.90
2023-04-15T10:37:03.512Z,99.90
2023-04-15T10:39:56.044Z,99.90
2023-04-15T10:43:01.266Z,99.90
2023-04-15T10:46:26.540Z,99.90
2023-04-15T10:49:52.476Z,99.90
2023-04-15T10:53:44.467Z,99.90
2023-04-15T10:56:51.574Z,99.90
2023-04-15T10:59:23.442Z,99.90
2023-04-15T11:01:52.120Z,99.90
2023-04-15T11:04:54.376Z,99.90
2023-04-15T11:07:39.120Z,99.90
2023-04-15T11:10:56.849Z,99.90
2023-04-15T11:13:33.118Z,99.90
2023-04-15T11:16:04.725Z,99.90
2023-04-15T11:18:35.980Z,99.90
2023-04-15T11:21:06.314Z,99.70
2023-04-15T11:23:41.091Z,99.80
2023-04-15T11:26:12.319Z,98.90
2023-04-15T11:28:42.064Z,99.70
2023-04-15T11:31:12.268Z,99.80
2023-04-15T11:33:46.931Z,99.90
2023-04-15T11:36:15.100Z,98.80
2023-04-15T11:38:48.258Z,98.30
2023-04-15T11:41:21.993Z,98.50
2023-04-15T11:43:50.077Z,98.20
2023-04-15T11:46:18.298Z,97.60
2023-04-15T11:48:48.086Z,98.70
2023-04-15T11:51:16.146Z,98.80
2023-04-15T11:53:46.551Z,99.30
2023-04-15T11:56:21.605Z,98.00
2023-04-15T11:58:52.803Z,98.00
2023-04-15T12:01:20.960Z,96.50
2023-04-15T12:03:50.431Z,96.60
2023-04-15T12:06:20.020Z,97.00
2023-04-15T12:09:13.198Z,97.50
2023-04-15T12:11:45.087Z,97.40
2023-04-15T12:14:18.759Z,96.70
2023-04-15T12:16:51.841Z,97.30
2023-04-15T12:19:25.234Z,97.50
2023-04-15T12:21:54.659Z,97.10
2023-04-15T12:24:23.995Z,96.10
2023-04-15T12:26:54.951Z,95.80
2023-04-15T12:29:27.844Z,96.00
2023-04-15T12:31:57.224Z,94.70
2023-04-15T12:34:30.510Z,95.30
2023-04-15T12:37:00.142Z,94.60
2023-04-15T12:39:30.890Z,95.10
2023-04-15T12:42:01.590Z,92.80
2023-04-15T12:44:29.988Z,92.10
2023-04-15T12:46:58.312Z,90.70
2023-04-15T12:49:26.789Z,90.50
2023-04-15T12:51:56.367Z,90.60
2023-04-15T12:54:24.718Z,90.10
2023-04-15T12:56:52.922Z,90.50
2023-04-15T12:59:23.755Z,90.50
2023-04-15T13:01:52.129Z,88.40
2023-04-15T13:04:21.338Z,87.50
2023-04-15T13:06:49.650Z,86.60
2023-04-15T13:09:17.642Z,85.60
2023-04-15T13:11:45.781Z,86.70
2023-04-15T13:14:13.855Z,86.80
2023-04-15T13:16:43.297Z,86.70
2023-04-15T13:19:11.261Z,87.20
2023-04-15T13:21:39.391Z,88.30
2023-04-15T13:24:08.329Z,88.80
2023-04-15T13:26:36.472Z,90.00
2023-04-15T13:29:04.602Z,90.30
2023-04-15T13:31:32.862Z,90.80
2023-04-15T13:34:02.510Z,91.20
2023-04-15T13:36:30.768Z,91.50
2023-04-15T13:38:59.912Z,92.10
2023-04-15T13:41:27.797Z,92.60
2023-04-15T13:43:55.723Z,92.60
2023-04-15T13:46:23.641Z,92.60
2023-04-15T13:48:51.587Z,92.80
2023-04-15T13:51:20.911Z,92.90
2023-04-15T13:53:48.844Z,93.40
2023-04-15T13:56:16.757Z,93.40
2023-04-15T13:58:44.737Z,93.70
2023-04-15T14:01:12.923Z,94.40
2023-04-15T14:03:41.300Z,94.70
2023-04-15T14:06:09.437Z,94.90
2023-04-15T14:08:40.211Z,94.40
2023-04-15T14:11:08.265Z,94.00
2023-04-15T14:13:36.267Z,94.70
2023-04-15T14:16:04.460Z,97.00
2023-04-15T14:18:32.527Z,97.80
2023-04-15T14:21:02.301Z,98.70
2023-04-15T14:23:30.204Z,99.90
2023-04-15T14:25:59.523Z,99.90
2023-04-15T14:28:27.445Z,99.90
2023-04-15T14:30:55.309Z,99.90
2023-04-15T14:33:23.258Z,99.90
2023-04-15T14:35:52.087Z,99.90
2023-04-15T14:38:22.596Z,99.90
2023-04-15T14:40:50.673Z,99.90
2023-04-15T14:43:20.427Z,99.90
2023-04-15T14:45:48.496Z,99.90
2023-04-15T14:48:16.985Z,99.90
2023-04-15T14:50:45.012Z,99.90
2023-04-15T14:53:13.084Z,99.90
2023-04-15T14:55:41.059Z,99.90
2023-04-15T14:58:09.330Z,99.90
2023-04-15T15:00:42.093Z,99.90
2023-04-15T15:03:13.588Z,99.90
2023-04-15T15:05:42.307Z,99.90
2023-04-15T15:08:11.127Z,99.90
2023-04-15T15:10:48.995Z,99.90
2023-04-15T15:13:18.999Z,99.90
2023-04-15T15:15:50.090Z,99.90
2023-04-15T15:18:18.899Z,99.90
2023-04-15T15:20:47.423Z,99.90
2023-04-15T15:23:15.499Z,99.90
2023-04-15T15:25:43.645Z,99.90
2023-04-15T15:28:11.668Z,99.90
2023-04-15T15:30:39.744Z,99.90
2023-04-15T15:33:09.278Z,99.90
2023-04-15T15:35:37.293Z,99.90
2023-04-15T15:38:05.345Z,99.90
2023-04-15T15:40:33.465Z,99.90
2023-04-15T15:43:01.432Z,99.90
2023-04-15T15:45:29.381Z,99.90
2023-04-15T15:47:58.871Z,99.90
2023-04-15T15:50:28.507Z,99.90
2023-04-15T15:52:56.474Z,99.90
2023-04-15T15:55:25.702Z,99.90
2023-04-15T15:57:53.856Z,99.90
2023-04-15T16:00:23.151Z,99.90
2023-04-15T16:03:06.211Z,99.90
2023-04-15T16:05:36.647Z,99.90
2023-04-15T16:08:04.577Z,99.90
2023-04-15T16:10:32.527Z,99.90
2023-04-15T16:13:00.593Z,99.90
2023-04-15T16:15:28.501Z,99.90
2023-04-15T16:17:56.567Z,99.90
2023-04-15T16:20:24.709Z,99.90
2023-04-15T16:22:54.006Z,99.90
2023-04-15T16:25:22.131Z,99.90
2023-04-15T16:27:57.757Z,99.90
2023-04-15T16:30:31.422Z,99.90
2023-04-15T16:32:59.529Z,99.90
2023-04-15T16:35:27.464Z,99.90
2023-04-15T16:37:56.957Z,99.90
2023-04-15T16:40:25.127Z,99.90
2023-04-15T16:42:53.527Z,99.90
2023-04-15T16:45:21.456Z,99.90
2023-04-15T16:47:49.623Z,99.90
2023-04-15T16:50:17.788Z,99.90
2023-04-15T16:52:46.250Z,99.90
2023-04-15T16:55:15.632Z,99.90
2023-04-15T16:58:00.371Z,99.90
2023-04-15T17:00:31.216Z,99.90
2023-04-15T17:02:59.623Z,99.90
2023-04-15T17:05:28.321Z,99.90
2023-04-15T17:07:56.602Z,99.90
2023-04-15T17:10:26.199Z,99.90
2023-04-15T17:12:54.636Z,99.90
2023-04-15T17:15:22.686Z,99.90
2023-04-15T17:17:50.772Z,99.90
2023-04-15T17:20:18.906Z,99.90
2023-04-15T17:22:47.109Z,99.90
2023-04-15T17:25:15.352Z,99.90
2023-04-15T17:27:44.756Z,99.90
2023-04-15T17:30:12.999Z,99.90
2023-04-15T17:32:41.140Z,99.90
2023-04-15T17:35:10.085Z,99.90
2023-04-15T17:37:38.776Z,99.90
2023-04-15T17:40:08.877Z,99.90
2023-04-15T17:42:37.138Z,99.90
2023-04-15T17:45:07.569Z,99.90
2023-04-15T17:47:35.560Z,99.90
2023-04-15T17:50:03.627Z,99.90
2023-04-15T17:52:31.663Z,99.90
2023-04-15T17:54:59.777Z,99.90
2023-04-15T17:57:27.959Z,99.90
2023-04-15T17:59:56.071Z,99.90
2023-04-15T18:02:25.783Z,99.90
2023-04-15T18:04:53.943Z,99.90
2023-04-15T18:07:36.910Z,99.90
2023-04-15T18:10:05.502Z,99.90
2023-04-15T18:12:33.487Z,99.90
2023-04-15T18:15:01.553Z,99.90
2023-04-15T18:17:30.910Z,99.90
2023-04-15T18:19:58.978Z,99.90
2023-04-15T18:22:26.949Z,99.90
2023-04-15T18:24:54.966Z,99.90
2023-04-15T18:27:23.146Z,99.90
2023-04-15T18:29:52.259Z,99.90
2023-04-15T18:32:20.185Z,99.90
2023-04-15T18:34:49.818Z,99.90
2023-04-15T18:37:17.752Z,99.90
2023-04-15T18:39:45.708Z,99.90
2023-04-15T18:42:46.754Z,99.90
2023-04-15T18:45:30.908Z,99.90
2023-04-15T18:48:19.324Z,99.90
2023-04-15T18:51:38.245Z,99.90
2023-04-15T18:54:38.277Z,99.90
2023-04-15T18:57:37.903Z,99.90
2023-04-15T19:00:28.466Z,99.90
2023-04-15T19:03:21.884Z,99.90
2023-04-15T19:06:15.640Z,99.90
2023-04-15T19:09:06.767Z,99.90
2023-04-15T19:12:00.754Z,99.90
2023-04-15T19:14:40.290Z,99.90
2023-04-15T19:17:20.089Z,99.90
2023-04-15T19:20:20.582Z,99.90
2023-04-15T19:23:19.623Z,99.90
2023-04-15T19:25:58.294Z,99.90
2023-04-15T19:28:38.171Z,99.90
2023-04-15T19:31:25.430Z,99.90
2023-04-15T19:34:13.908Z,99.90
2023-04-15T19:36:54.129Z,99.90
2023-04-15T19:39:49.233Z,99.90
2023-04-15T19:42:20.446Z,99.90
2023-04-15T19:45:05.310Z,99.90
2023-04-15T19:47:43.416Z,99.90
2023-04-15T19:50:24.876Z,99.90
2023-04-15T19:53:02.844Z,99.90
2023-04-15T19:56:03.084Z,99.90
2023-04-15T19:58:53.360Z,99.90
2023-04-15T20:01:48.202Z,99.90
2023-04-15T20:04:26.216Z,99.90
2023-04-15T20:07:11.111Z,99.90
2023-04-15T20:10:01.466Z,99.90
2023-04-15T20:13:02.450Z,99.90
2023-04-15T20:15:39.450Z,99.90
2023-04-15T20:18:17.342Z,99.90
2023-04-15T20:20:55.071Z,99.90
2023-04-15T20:23:39.823Z,99.90
2023-04-15T20:26:29.264Z,99.90
2023-04-15T20:29:18.811Z,99.90
2023-04-15T20:31:50.754Z,99.90
2023-04-15T20:34:25.958Z,99.90
2023-04-15T20:37:17.439Z,99.90
2023-04-15T20:39:48.272Z,99.90
2023-04-15T20:42:23.456Z,99.90
2023-04-15T20:45:13.827Z,99.90
2023-04-15T20:47:59.132Z,99.90
2023-04-15T20:50:36.146Z,99.90
2023-04-15T20:53:16.179Z,99.90
2023-04-15T20:55:51.880Z,99.90
2023-04-15T20:58:26.953Z,99.90
2023-04-15T21:01:27.681Z,99.90
2023-04-15T21:04:05.541Z,99.90
2023-04-15T21:06:46.043Z,99.90
2023-04-15T21:09:30.263Z,99.90
2023-04-15T21:12:18.060Z,99.90
2023-04-15T21:14:58.334Z,99.90
2023-04-15T21:17:50.589Z,99.90
2023-04-15T21:20:47.078Z,99.90
2023-04-15T21:23:25.077Z,99.90
2023-04-15T21:26:14.447Z,99.90
2023-04-15T21:28:55.759Z,99.90
2023-04-15T21:31:45.456Z,99.90
2023-04-15T21:34:53.942Z,99.90
2023-04-15T21:37:36.036Z,99.90
2023-04-15T21:40:19.069Z,99.90
2023-04-15T21:42:53.337Z,99.90
2023-04-15T21:45:24.848Z,99.90
2023-04-15T21:51:17.097Z,99.90
2023-04-15T21:54:12.168Z,99.90
2023-04-15T21:57:05.243Z,99.90
2023-04-15T21:59:36.023Z,99.90
2023-04-15T22:02:04.261Z,99.90
2023-04-15T22:04:32.847Z,99.90
2023-04-15T22:07:02.884Z,99.90
2023-04-15T22:09:34.190Z,99.90
2023-04-15T22:12:05.817Z,99.90
2023-04-15T22:14:36.664Z,99.90
2023-04-15T22:17:08.528Z,99.90
2023-04-15T22:19:37.216Z,99.90
2023-04-15T22:22:07.822Z,99.90
2023-04-15T22:24:40.182Z,99.90
2023-04-15T22:27:09.441Z,99.90
2023-04-15T22:29:38.639Z,99.90
2023-04-15T22:32:08.269Z,99.90
2023-04-15T22:34:36.942Z,99.90
2023-04-15T22:37:07.486Z,99.90
2023-04-15T22:39:36.478Z,99.90
2023-04-15T22:42:05.011Z,99.90
2023-04-15T22:44:33.338Z,99.90
2023-04-15T22:47:01.400Z,99.90
2023-04-15T22:49:29.502Z,99.90
2023-04-15T22:51:57.689Z,99.90
2023-04-15T22:54:27.113Z,99.90
2023-04-15T22:56:55.287Z,99.90
2023-04-15T22:59:23.192Z,99.90
2023-04-15T23:01:53.729Z,99.90
2023-04-15T23:04:24.880Z,99.90
2023-04-15T23:06:55.155Z,99.90
2023-04-15T23:09:23.999Z,99.90
2023-04-15T23:11:54.947Z,99.90
2023-04-15T23:14:24.167Z,99.90
2023-04-15T23:16:52.544Z,99.90
2023-04-15T23:19:20.841Z,99.90
2023-04-15T23:21:49.231Z,99.90
2023-04-15T23:24:17.610Z,99.90
2023-04-15T23:26:45.912Z,99.90
2023-04-15T23:29:17.975Z,99.90
2023-04-15T23:31:46.256Z,99.90
2023-04-15T23:34:14.377Z,99.90
2023-04-15T23:36:42.539Z,99.90
2023-04-15T23:39:10.857Z,99.90
2023-04-15T23:41:39.497Z,99.90
2023-04-15T23:44:08.126Z,99.90
2023-04-15T23:46:37.789Z,99.90
2023-04-15T23:49:06.140Z,99.90
2023-04-15T23:51:34.309Z,99.90
2023-04-15T23:54:02.495Z,99.90
2023-04-15T23:56:30.594Z,99.90
2023-04-15T23:58:58.652Z,99.90
